createdAt,value
2022-11-09T00:00:47.031Z,17.46
2022-11-09T00:03:13.362Z,17.27
2022-11-09T00:05:39.706Z,17.37
2022-11-09T00:08:06.116Z,17.36
2022-11-09T00:10:32.488Z,17.09
2022-11-09T00:12:58.817Z,17.17
2022-11-09T00:15:25.153Z,17.38
2022-11-09T00:17:51.478Z,17.28
2022-11-09T00:20:17.819Z,17.28
2022-11-09T00:22:44.158Z,17.39
2022-11-09T00:25:10.498Z,17.44
2022-11-09T00:27:36.836Z,17.20
2022-11-09T00:30:03.166Z,16.77
2022-11-09T00:32:29.500Z,17.23
2022-11-09T00:34:55.818Z,17.38
2022-11-09T00:37:22.191Z,17.57
2022-11-09T00:39:48.537Z,17.61
2022-11-09T00:42:14.857Z,17.44
2022-11-09T00:44:41.197Z,17.48
2022-11-09T00:47:07.535Z,17.20
2022-11-09T00:49:33.876Z,17.20
2022-11-09T00:52:00.222Z,17.57
2022-11-09T00:54:26.554Z,17.54
2022-11-09T00:56:52.888Z,17.44
2022-11-09T00:59:19.210Z,17.44
2022-11-09T01:01:45.551Z,17.38
2022-11-09T01:04:11.884Z,17.19
2022-11-09T01:06:38.254Z,17.48
2022-11-09T01:09:04.616Z,17.46
2022-11-09T01:11:30.950Z,17.32
2022-11-09T01:13:57.282Z,17.45
2022-11-09T01:16:23.621Z,17.40
2022-11-09T01:18:49.963Z,17.39
2022-11-09T01:21:16.293Z,17.31
2022-11-09T01:23:42.634Z,17.38
2022-11-09T01:26:08.968Z,17.46
2022-11-09T01:28:35.309Z,17.45
2022-11-09T01:31:01.629Z,17.59
2022-11-09T01:33:27.962Z,17.61
2022-11-09T01:35:54.300Z,17.36
2022-11-09T01:38:20.635Z,17.44
2022-11-09T01:40:46.974Z,17.57
2022-11-09T01:43:13.328Z,17.53
2022-11-09T01:45:39.661Z,17.51
2022-11-09T01:48:06.058Z,17.48
2022-11-09T01:50:32.566Z,17.32
2022-11-09T01:52:58.936Z,17.62
2022-11-09T01:55:25.267Z,17.60
2022-11-09T01:57:51.608Z,17.36
2022-11-09T02:00:17.994Z,17.54
2022-11-09T02:02:44.337Z,17.59
2022-11-09T02:05:10.697Z,17.27
2022-11-09T02:07:37.029Z,17.56
2022-11-09T02:10:03.359Z,17.52
2022-11-09T02:12:29.703Z,17.40
2022-11-09T02:14:56.040Z,17.34
2022-11-09T02:17:22.386Z,17.09
2022-11-09T02:19:48.724Z,17.63
2022-11-09T02:22:15.065Z,17.28
2022-11-09T02:24:41.407Z,17.45
2022-11-09T02:27:07.751Z,17.51
2022-11-09T02:29:34.100Z,17.44
2022-11-09T02:32:00.436Z,17.02
2022-11-09T02:34:26.772Z,16.89
2022-11-09T02:36:53.098Z,17.32
2022-11-09T02:39:19.423Z,16.91
2022-11-09T02:41:45.767Z,17.08
2022-11-09T02:44:12.098Z,17.03
2022-11-09T02:46:38.457Z,17.24
2022-11-09T02:49:04.787Z,16.55
2022-11-09T02:51:31.128Z,16.96
2022-11-09T02:53:57.473Z,17.06
2022-11-09T02:56:23.809Z,16.82
2022-11-09T02:58:51.212Z,16.92
2022-11-09T03:01:17.623Z,17.13
2022-11-09T03:03:44.009Z,17.25
2022-11-09T03:06:10.349Z,17.24
2022-11-09T03:08:36.678Z,17.21
2022-11-09T03:11:03.010Z,17.24
2022-11-09T03:13:29.345Z,17.10
2022-11-09T03:15:55.755Z,17.03
2022-11-09T03:18:22.087Z,16.59
2022-11-09T03:20:48.429Z,16.30
2022-11-09T03:23:14.770Z,16.28
2022-11-09T03:25:41.107Z,16.87
2022-11-09T03:28:07.443Z,16.89
2022-11-09T03:30:33.779Z,16.62
2022-11-09T03:33:00.185Z,16.87
2022-11-09T03:35:26.526Z,16.93
2022-11-09T03:37:52.916Z,16.95
2022-11-09T03:40:19.641Z,16.41
2022-11-09T03:42:46.009Z,16.13
2022-11-09T03:45:12.332Z,16.84
2022-11-09T03:47:38.681Z,16.91
2022-11-09T03:50:05.016Z,16.92
2022-11-09T03:52:31.352Z,16.77
2022-11-09T03:54:57.687Z,16.97
2022-11-09T03:57:24.021Z,16.88
2022-11-09T03:59:50.372Z,16.87
2022-11-09T04:02:16.723Z,16.75
2022-11-09T04:04:43.059Z,16.30
2022-11-09T04:07:09.446Z,16.63
2022-11-09T04:09:35.947Z,16.89
2022-11-09T04:12:02.282Z,17.01
2022-11-09T04:14:28.617Z,16.90
2022-11-09T04:16:54.946Z,16.60
2022-11-09T04:19:21.289Z,16.76
2022-11-09T04:21:47.618Z,16.95
2022-11-09T04:24:13.948Z,16.75
2022-11-09T04:26:40.279Z,16.79
2022-11-09T04:29:06.616Z,16.47
2022-11-09T04:31:32.942Z,16.60
2022-11-09T04:33:59.266Z,16.84
2022-11-09T04:36:25.615Z,17.01
2022-11-09T04:38:51.951Z,16.99
2022-11-09T04:41:18.295Z,16.97
2022-11-09T04:43:44.617Z,16.75
2022-11-09T04:46:10.959Z,16.90
2022-11-09T04:48:37.307Z,17.01
2022-11-09T04:51:03.642Z,16.90
2022-11-09T04:53:29.986Z,16.93
2022-11-09T04:55:56.312Z,16.79
2022-11-09T04:58:25.079Z,16.41
2022-11-09T05:00:51.603Z,16.18
2022-11-09T05:03:18.292Z,16.57
2022-11-09T05:05:48.325Z,16.76
2022-11-09T05:08:15.062Z,16.96
2022-11-09T05:10:41.397Z,16.98
2022-11-09T05:13:07.737Z,16.99
2022-11-09T05:15:34.058Z,16.90
2022-11-09T05:18:00.408Z,16.94
2022-11-09T05:20:26.744Z,17.05
2022-11-09T05:22:53.091Z,16.90
2022-11-09T05:25:19.437Z,16.90
2022-11-09T05:27:45.772Z,16.95
2022-11-09T05:30:12.121Z,16.91
2022-11-09T05:32:38.477Z,16.56
2022-11-09T05:35:04.834Z,17.00
2022-11-09T05:37:31.155Z,17.10
2022-11-09T05:39:57.492Z,17.15
2022-11-09T05:42:23.815Z,17.08
2022-11-09T05:44:50.147Z,16.95
2022-11-09T05:47:16.487Z,16.87
2022-11-09T05:49:42.822Z,16.78
2022-11-09T05:52:09.154Z,16.40
2022-11-09T05:54:35.481Z,16.11
2022-11-09T05:57:01.807Z,16.15
2022-11-09T05:59:28.161Z,16.63
2022-11-09T06:01:54.528Z,16.98
2022-11-09T06:04:20.916Z,17.10
2022-11-09T06:06:47.334Z,17.06
2022-11-09T06:09:13.761Z,17.10
2022-11-09T06:11:40.098Z,17.14
2022-11-09T06:14:06.431Z,17.17
2022-11-09T06:16:32.768Z,17.13
2022-11-09T06:18:59.103Z,17.17
2022-11-09T06:21:25.425Z,17.11
2022-11-09T06:23:51.764Z,16.62
2022-11-09T06:26:18.116Z,15.90
2022-11-09T06:28:44.463Z,16.12
2022-11-09T06:31:10.807Z,15.99
2022-11-09T06:33:37.149Z,16.21
2022-11-09T06:36:03.480Z,15.97
2022-11-09T06:38:29.822Z,15.88
2022-11-09T06:40:56.151Z,15.99
2022-11-09T06:43:22.843Z,16.32
2022-11-09T06:45:49.314Z,16.17
2022-11-09T06:48:15.662Z,16.30
2022-11-09T06:50:41.988Z,16.33
2022-11-09T06:53:08.337Z,16.11
2022-11-09T06:55:34.671Z,15.85
2022-11-09T06:58:01.016Z,15.94
2022-11-09T07:00:27.447Z,15.83
2022-11-09T07:02:53.783Z,15.96
2022-11-09T07:05:20.122Z,15.81
2022-11-09T07:07:46.457Z,16.32
2022-11-09T07:10:12.788Z,16.60
2022-11-09T07:12:39.123Z,16.79
2022-11-09T07:15:05.460Z,16.24
2022-11-09T07:17:31.805Z,16.01
2022-11-09T07:19:58.142Z,15.78
2022-11-09T07:22:24.478Z,15.88
2022-11-09T07:24:50.826Z,16.41
2022-11-09T07:27:17.156Z,15.77
2022-11-09T07:29:43.479Z,16.03
2022-11-09T07:32:09.803Z,15.80
2022-11-09T07:34:36.139Z,16.37
2022-11-09T07:37:02.489Z,16.37
2022-11-09T07:39:28.836Z,16.02
2022-11-09T07:41:55.163Z,16.15
2022-11-09T07:44:21.487Z,16.01
2022-11-09T07:46:48.076Z,16.50
2022-11-09T07:49:14.415Z,16.34
2022-11-09T07:51:40.748Z,16.46
2022-11-09T07:54:07.090Z,16.48
2022-11-09T07:56:33.442Z,16.54
2022-11-09T07:58:59.783Z,16.52
2022-11-09T08:01:26.112Z,16.94
2022-11-09T08:03:52.460Z,17.27
2022-11-09T08:06:19.154Z,17.09
2022-11-09T08:08:45.539Z,16.87
2022-11-09T08:11:11.876Z,17.11
2022-11-09T08:13:38.202Z,17.15
2022-11-09T08:16:04.529Z,17.27
2022-11-09T08:18:30.880Z,16.87
2022-11-09T08:20:57.228Z,16.82
2022-11-09T08:23:23.554Z,16.87
2022-11-09T08:25:49.888Z,17.14
2022-11-09T08:28:16.260Z,17.63
2022-11-09T08:30:42.619Z,17.73
2022-11-09T08:33:09.007Z,17.54
2022-11-09T08:35:35.338Z,17.47
2022-11-09T08:38:01.790Z,17.68
2022-11-09T08:40:28.138Z,17.72
2022-11-09T08:42:54.483Z,17.74
2022-11-09T08:45:20.806Z,17.71
2022-11-09T08:47:47.154Z,17.85
2022-11-09T08:50:13.515Z,17.85
2022-11-09T08:52:39.850Z,17.86
2022-11-09T08:55:06.192Z,17.91
2022-11-09T08:57:32.531Z,17.89
2022-11-09T08:59:58.868Z,17.46
2022-11-09T09:02:25.223Z,17.21
2022-11-09T09:04:51.560Z,16.85
2022-11-09T09:07:18.018Z,16.97
2022-11-09T09:09:44.399Z,16.79
2022-11-09T09:12:10.721Z,16.87
2022-11-09T09:14:37.047Z,16.77
2022-11-09T09:17:03.375Z,17.28
2022-11-09T09:19:29.715Z,17.58
2022-11-09T09:21:56.056Z,17.10
2022-11-09T09:24:22.390Z,17.05
2022-11-09T09:26:48.730Z,16.84
2022-11-09T09:29:15.059Z,16.75
2022-11-09T09:31:41.413Z,16.65
2022-11-09T09:34:07.764Z,16.75
2022-11-09T09:36:34.101Z,16.90
2022-11-09T09:39:00.432Z,16.70
2022-11-09T09:41:26.787Z,16.79
2022-11-09T09:43:53.125Z,17.44
2022-11-09T09:46:19.471Z,17.60
2022-11-09T09:48:45.806Z,17.24
2022-11-09T09:51:12.152Z,17.01
2022-11-09T09:53:38.482Z,17.27
2022-11-09T09:56:04.819Z,17.27
2022-11-09T09:58:31.175Z,17.46
2022-11-09T10:00:57.590Z,17.39
2022-11-09T10:03:23.930Z,17.73
2022-11-09T10:05:50.267Z,18.02
2022-11-09T10:08:16.613Z,18.11
2022-11-09T10:10:42.943Z,18.25
2022-11-09T10:13:09.276Z,18.14
2022-11-09T10:15:35.614Z,18.01
2022-11-09T10:18:01.945Z,17.95
2022-11-09T10:20:28.290Z,18.06
2022-11-09T10:22:54.626Z,18.31
2022-11-09T10:25:37.408Z,17.68
2022-11-09T10:28:12.882Z,17.91
2022-11-09T10:30:39.639Z,18.03
2022-11-09T10:33:05.967Z,18.26
2022-11-09T10:35:32.300Z,18.26
2022-11-09T10:37:58.640Z,18.23
2022-11-09T10:40:24.981Z,18.46
2022-11-09T10:42:51.315Z,18.42
2022-11-09T10:45:17.660Z,18.36
2022-11-09T10:47:44.014Z,18.38
2022-11-09T10:50:10.336Z,18.08
2022-11-09T10:52:36.679Z,18.35
2022-11-09T10:55:03.023Z,18.17
2022-11-09T10:57:29.363Z,18.41
2022-11-09T10:59:55.701Z,18.44
2022-11-09T11:02:22.081Z,18.31
2022-11-09T11:04:48.447Z,17.87
2022-11-09T11:07:18.354Z,17.85
2022-11-09T11:09:47.262Z,18.01
2022-11-09T11:12:13.603Z,18.31
2022-11-09T11:14:39.968Z,18.29
2022-11-09T11:17:06.300Z,18.17
2022-11-09T11:19:32.638Z,18.39
2022-11-09T11:21:58.973Z,18.46
2022-11-09T11:24:25.303Z,18.33
2022-11-09T11:26:51.690Z,18.47
2022-11-09T11:29:18.057Z,18.24
2022-11-09T11:31:44.385Z,18.43
2022-11-09T11:34:10.720Z,17.63
2022-11-09T11:36:37.058Z,17.74
2022-11-09T11:39:03.396Z,18.19
2022-11-09T11:41:29.722Z,18.30
2022-11-09T11:43:56.056Z,18.17
2022-11-09T11:46:22.394Z,18.16
2022-11-09T11:48:48.711Z,18.28
2022-11-09T11:51:15.038Z,18.28
2022-11-09T11:53:43.532Z,18.14
2022-11-09T11:56:10.153Z,18.23
2022-11-09T11:58:36.502Z,18.36
2022-11-09T12:01:02.837Z,18.51
2022-11-09T12:03:29.185Z,17.97
2022-11-09T12:05:55.540Z,17.96
2022-11-09T12:08:22.129Z,17.95
2022-11-09T12:10:48.695Z,18.12
2022-11-09T12:13:15.027Z,18.41
2022-11-09T12:15:41.381Z,18.04
2022-11-09T12:18:07.711Z,18.07
2022-11-09T12:20:34.039Z,18.21
2022-11-09T12:23:00.384Z,18.26
2022-11-09T12:25:26.728Z,18.23
2022-11-09T12:27:53.071Z,18.06
2022-11-09T12:30:19.394Z,18.17
2022-11-09T12:32:45.717Z,18.30
2022-11-09T12:35:12.055Z,18.43
2022-11-09T12:37:38.380Z,18.32
2022-11-09T12:40:04.711Z,18.41
2022-11-09T12:42:31.038Z,18.06
2022-11-09T12:44:57.387Z,18.15
2022-11-09T12:47:23.719Z,18.24
2022-11-09T12:49:50.058Z,18.36
2022-11-09T12:52:16.391Z,18.42
2022-11-09T12:54:42.729Z,18.51
2022-11-09T12:57:09.071Z,18.33
2022-11-09T12:59:35.406Z,18.43
2022-11-09T13:02:01.793Z,18.42
2022-11-09T13:04:28.179Z,18.46
2022-11-09T13:06:54.615Z,18.41
2022-11-09T13:09:21.027Z,18.43
2022-11-09T13:11:47.357Z,18.46
2022-11-09T13:14:13.720Z,18.50
2022-11-09T13:16:40.047Z,18.39
2022-11-09T13:19:06.385Z,18.42
2022-11-09T13:21:32.725Z,18.50
2022-11-09T13:24:02.881Z,18.36
2022-11-09T13:26:30.850Z,18.54
2022-11-09T13:28:57.192Z,18.51
2022-11-09T13:31:23.575Z,18.50
2022-11-09T13:33:49.923Z,18.56
2022-11-09T13:36:16.266Z,18.45
2022-11-09T13:38:42.600Z,18.44
2022-11-09T13:41:08.942Z,18.44
2022-11-09T13:43:35.279Z,18.32
2022-11-09T13:46:01.616Z,18.38
2022-11-09T13:48:27.952Z,18.40
2022-11-09T13:50:56.592Z,18.30
2022-11-09T13:53:23.102Z,18.31
2022-11-09T13:55:49.432Z,18.25
2022-11-09T13:58:15.778Z,18.28
2022-11-09T14:00:42.121Z,18.36
2022-11-09T14:03:08.464Z,18.30
2022-11-09T14:05:34.801Z,18.21
2022-11-09T14:08:01.131Z,18.28
2022-11-09T14:10:27.460Z,18.20
2022-11-09T14:12:53.803Z,18.22
2022-11-09T14:15:20.146Z,18.30
2022-11-09T14:17:46.648Z,18.32
2022-11-09T14:20:13.082Z,18.18
2022-11-09T14:22:39.468Z,18.40
2022-11-09T14:25:05.794Z,18.28
2022-11-09T14:27:32.124Z,18.22
2022-11-09T14:29:58.449Z,18.34
2022-11-09T14:32:24.780Z,18.33
2022-11-09T14:34:51.143Z,18.26
2022-11-09T14:37:17.473Z,18.25
2022-11-09T14:39:43.821Z,18.10
2022-11-09T14:42:10.158Z,18.26
2022-11-09T14:44:36.585Z,18.23
2022-11-09T14:47:02.911Z,18.21
2022-11-09T14:49:29.253Z,18.20
2022-11-09T14:51:55.597Z,18.24
2022-11-09T14:54:21.945Z,18.22
2022-11-09T14:56:48.503Z,18.09
2022-11-09T14:59:14.838Z,18.29
2022-11-09T15:01:41.176Z,18.02
2022-11-09T15:04:07.545Z,18.30
2022-11-09T15:06:33.965Z,18.16
2022-11-09T15:09:00.349Z,18.23
2022-11-09T15:11:26.672Z,17.94
2022-11-09T15:13:53.083Z,18.16
2022-11-09T15:16:19.582Z,18.11
2022-11-09T15:18:45.911Z,18.31
2022-11-09T15:21:12.247Z,18.28
2022-11-09T15:23:38.586Z,18.00
2022-11-09T15:26:04.930Z,18.18
2022-11-09T15:28:31.277Z,18.08
2022-11-09T15:30:57.612Z,18.05
2022-11-09T15:33:23.950Z,17.99
2022-11-09T15:35:50.311Z,18.15
2022-11-09T15:38:16.643Z,17.31
2022-11-09T15:40:42.986Z,17.16
2022-11-09T15:43:09.330Z,17.67
2022-11-09T15:45:35.939Z,17.78
2022-11-09T15:48:02.266Z,17.76
2022-11-09T15:50:28.603Z,17.75
2022-11-09T15:52:54.941Z,17.84
2022-11-09T15:55:21.281Z,17.90
2022-11-09T15:57:47.600Z,17.76
2022-11-09T16:00:19.474Z,18.01
2022-11-09T16:02:47.208Z,17.98
2022-11-09T16:05:13.545Z,18.14
2022-11-09T16:07:39.886Z,18.11
2022-11-09T16:10:06.231Z,18.28
2022-11-09T16:12:32.568Z,18.16
2022-11-09T16:14:58.924Z,18.22
2022-11-09T16:17:25.270Z,18.13
2022-11-09T16:19:51.589Z,18.04
2022-11-09T16:22:17.932Z,18.28
2022-11-09T16:24:44.282Z,18.18
2022-11-09T16:27:17.224Z,18.27
2022-11-09T16:29:56.932Z,18.31
2022-11-09T16:32:23.263Z,18.26
2022-11-09T16:35:08.445Z,18.30
2022-11-09T16:37:35.920Z,18.22
2022-11-09T16:40:02.264Z,18.01
2022-11-09T16:42:28.601Z,17.91
2022-11-09T16:44:54.946Z,17.96
2022-11-09T16:47:21.297Z,17.88
2022-11-09T16:49:47.631Z,17.89
2022-11-09T16:52:13.970Z,17.99
2022-11-09T16:54:40.306Z,17.40
2022-11-09T16:57:06.644Z,17.45
2022-11-09T16:59:33.014Z,17.57
2022-11-09T17:01:59.400Z,17.77
2022-11-09T17:04:25.765Z,17.95
2022-11-09T17:06:52.113Z,17.84
2022-11-09T17:09:18.517Z,17.99
2022-11-09T17:11:44.861Z,17.79
2022-11-09T17:14:11.197Z,17.36
2022-11-09T17:16:37.541Z,17.02
2022-11-09T17:19:03.876Z,16.78
2022-11-09T17:21:30.224Z,16.85
2022-11-09T17:23:56.588Z,16.74
2022-11-09T17:26:22.998Z,16.85
2022-11-09T17:28:49.338Z,16.79
2022-11-09T17:31:15.688Z,16.59
2022-11-09T17:33:42.044Z,16.66
2022-11-09T17:36:08.392Z,17.02
2022-11-09T17:38:34.748Z,17.41
2022-11-09T17:41:01.088Z,17.66
2022-11-09T17:43:27.433Z,17.76
2022-11-09T17:45:53.768Z,17.73
2022-11-09T17:48:20.278Z,17.77
2022-11-09T17:50:46.768Z,17.86
2022-11-09T17:53:13.108Z,17.56
2022-11-09T17:55:39.443Z,17.16
2022-11-09T17:58:05.779Z,17.48
2022-11-09T18:00:32.117Z,17.81
2022-11-09T18:02:58.493Z,17.77
2022-11-09T18:05:24.833Z,18.05
2022-11-09T18:07:51.164Z,17.93
2022-11-09T18:10:17.483Z,17.89
2022-11-09T18:12:43.827Z,17.97
2022-11-09T18:15:10.163Z,17.87
2022-11-09T18:17:36.495Z,17.82
2022-11-09T18:20:02.842Z,17.72
2022-11-09T18:22:29.173Z,17.72
2022-11-09T18:24:55.510Z,17.72
2022-11-09T18:27:24.841Z,17.78
2022-11-09T18:29:55.385Z,17.81
2022-11-09T18:32:21.731Z,17.84
2022-11-09T18:34:48.075Z,17.78
2022-11-09T18:37:14.435Z,17.83
2022-11-09T18:39:40.797Z,17.80
2022-11-09T18:42:07.138Z,17.83
2022-11-09T18:44:33.471Z,17.83
2022-11-09T18:47:05.072Z,17.85
2022-11-09T18:49:32.124Z,17.77
2022-11-09T18:51:58.715Z,17.64
2022-11-09T18:54:25.237Z,17.89
2022-11-09T18:56:51.658Z,17.94
2022-11-09T18:59:17.997Z,18.01
2022-11-09T19:01:44.361Z,18.04
2022-11-09T19:04:10.702Z,17.97
2022-11-09T19:06:37.070Z,18.03
2022-11-09T19:09:03.463Z,17.42
2022-11-09T19:11:29.795Z,17.74
2022-11-09T19:13:56.164Z,17.96
2022-11-09T19:16:22.495Z,18.10
2022-11-09T19:18:48.835Z,18.20
2022-11-09T19:21:15.175Z,18.10
2022-11-09T19:23:41.514Z,18.14
2022-11-09T19:26:07.848Z,17.96
2022-11-09T19:28:34.175Z,17.93
2022-11-09T19:31:00.520Z,17.99
2022-11-09T19:33:26.857Z,17.76
2022-11-09T19:36:23.188Z,17.87
2022-11-09T19:38:39.502Z,17.65
2022-11-09T19:41:05.833Z,17.82
2022-11-09T19:43:32.157Z,17.76
2022-11-09T19:45:58.498Z,17.63
2022-11-09T19:48:24.836Z,17.58
2022-11-09T19:50:51.168Z,17.60
2022-11-09T19:53:17.505Z,17.73
2022-11-09T19:55:43.838Z,17.56
2022-11-09T19:58:10.683Z,17.58
2022-11-09T20:00:37.173Z,17.66
2022-11-09T20:03:03.512Z,17.68
2022-11-09T20:05:29.874Z,17.61
2022-11-09T20:07:56.232Z,17.48
2022-11-09T20:10:22.790Z,17.64
2022-11-09T20:12:49.128Z,17.75
2022-11-09T20:15:15.460Z,17.77
2022-11-09T20:17:41.808Z,17.72
2022-11-09T20:20:08.131Z,17.68
2022-11-09T20:22:34.487Z,17.63
2022-11-09T20:25:00.832Z,17.50
2022-11-09T20:27:31.118Z,17.62
2022-11-09T20:29:58.527Z,17.59
2022-11-09T20:32:24.855Z,17.51
2022-11-09T20:34:51.200Z,17.47
2022-11-09T20:37:17.542Z,17.59
2022-11-09T20:39:43.884Z,17.62
2022-11-09T20:42:10.220Z,17.69
2022-11-09T20:44:36.547Z,17.75
2022-11-09T20:47:02.880Z,17.73
2022-11-09T20:49:29.483Z,17.70
2022-11-09T20:51:55.804Z,17.59
2022-11-09T20:54:22.134Z,17.71
2022-11-09T20:56:48.471Z,17.53
2022-11-09T20:59:14.807Z,17.59
2022-11-09T21:01:41.197Z,17.64
2022-11-09T21:04:07.562Z,17.50
2022-11-09T21:06:33.930Z,17.44
2022-11-09T21:09:00.271Z,17.37
2022-11-09T21:11:26.629Z,17.43
2022-11-09T21:13:52.988Z,17.39
2022-11-09T21:16:19.318Z,17.33
2022-11-09T21:18:45.663Z,17.26
2022-11-09T21:21:12.056Z,17.24
2022-11-09T21:23:38.388Z,17.25
2022-11-09T21:26:04.730Z,17.48
2022-11-09T21:28:31.062Z,17.33
2022-11-09T21:30:57.401Z,17.45
2022-11-09T21:33:23.733Z,17.38
2022-11-09T21:35:50.067Z,17.39
2022-11-09T21:38:16.402Z,17.46
2022-11-09T21:40:42.727Z,17.40
2022-11-09T21:43:09.064Z,17.30
2022-11-09T21:45:35.513Z,17.48
2022-11-09T21:48:01.857Z,17.34
2022-11-09T21:50:28.188Z,17.19
2022-11-09T21:52:54.511Z,17.31
2022-11-09T21:55:20.839Z,17.37
2022-11-09T21:57:47.174Z,17.44
2022-11-09T22:00:13.507Z,17.28
2022-11-09T22:02:39.835Z,17.30
2022-11-09T22:05:06.169Z,17.17
2022-11-09T22:07:32.500Z,17.22
2022-11-09T22:10:09.784Z,17.11
2022-11-09T22:12:36.986Z,17.29
2022-11-09T22:15:03.308Z,17.33
2022-11-09T22:17:29.668Z,17.45
2022-11-09T22:19:55.995Z,17.52
2022-11-09T22:22:22.334Z,17.59
2022-11-09T22:24:48.656Z,17.48
2022-11-09T22:27:15.000Z,17.58
2022-11-09T22:29:41.338Z,17.59
2022-11-09T22:32:07.672Z,17.40
2022-11-09T22:34:33.994Z,17.22
2022-11-09T22:37:00.327Z,17.31
2022-11-09T22:39:26.671Z,17.51
2022-11-09T22:41:52.987Z,17.13
2022-11-09T22:44:19.331Z,17.60
2022-11-09T22:46:45.668Z,17.67
2022-11-09T22:49:11.999Z,17.73
2022-11-09T22:51:38.379Z,17.76
2022-11-09T22:54:04.718Z,17.57
2022-11-09T22:56:31.050Z,17.60
2022-11-09T22:58:57.381Z,17.60
2022-11-09T23:01:23.751Z,17.72
2022-11-09T23:03:50.152Z,17.58
2022-11-09T23:06:16.483Z,17.48
2022-11-09T23:08:42.811Z,17.66
2022-11-09T23:11:09.131Z,17.51
2022-11-09T23:13:35.477Z,17.19
2022-11-09T23:16:01.799Z,17.14
2022-11-09T23:18:28.132Z,17.26
2022-11-09T23:20:54.470Z,16.84
2022-11-09T23:23:21.124Z,17.30
2022-11-09T23:25:47.730Z,17.63
2022-11-09T23:28:14.067Z,17.52
2022-11-09T23:30:40.410Z,17.48
2022-11-09T23:33:06.751Z,17.59
2022-11-09T23:35:33.087Z,17.44
2022-11-09T23:37:59.426Z,17.64
2022-11-09T23:40:25.768Z,17.60
2022-11-09T23:42:52.096Z,17.53
2022-11-09T23:45:18.431Z,17.58
2022-11-09T23:47:44.764Z,17.61
2022-11-09T23:50:11.111Z,17.53
2022-11-09T23:52:37.451Z,17.31
2022-11-09T23:55:03.784Z,17.26
2022-11-09T23:57:30.115Z,17.28
2022-11-09T23:59:56.443Z,17.41
